sensor_id;sensor_type;location;lat;lon;timestamp;P1;durP1;ratioP1;P2;durP2;ratioP2
15258;SDS011;34462;51.368;12.364;2023-05-20T00:00:56;9.70;;;6.87;;
15258;SDS011;34462;51.368;12.364;2023-05-20T00:03:24;6.97;;;6.23;;
15258;SDS011;34462;51.368;12.364;2023-05-20T00:05:54;6.70;;;6.10;;
15258;SDS011;34462;51.368;12.364;2023-05-20T00:08:22;7.47;;;5.93;;
15258;SDS011;34462;51.368;12.364;2023-05-20T00:10:50;7.13;;;6.17;;
15258;SDS011;34462;51.368;12.364;2023-05-20T00:13:18;7.07;;;6.37;;
15258;SDS011;34462;51.368;12.364;2023-05-20T00:15:46;6.90;;;6.10;;
15258;SDS011;34462;51.368;12.364;2023-05-20T00:18:15;8.60;;;6.17;;
15258;SDS011;34462;51.368;12.364;2023-05-20T00:20:43;9.27;;;6.30;;
15258;SDS011;34462;51.368;12.364;2023-05-20T00:23:12;7.07;;;6.20;;
15258;SDS011;34462;51.368;12.364;2023-05-20T00:25:40;6.97;;;6.30;;
15258;SDS011;34462;51.368;12.364;2023-05-20T00:28:09;7.60;;;6.73;;
15258;SDS011;34462;51.368;12.364;2023-05-20T00:30:38;7.47;;;6.47;;
15258;SDS011;34462;51.368;12.364;2023-05-20T00:33:07;7.53;;;6.83;;
15258;SDS011;34462;51.368;12.364;2023-05-20T00:35:35;7.20;;;6.50;;
15258;SDS011;34462;51.368;12.364;2023-05-20T00:38:03;8.63;;;6.63;;
15258;SDS011;34462;51.368;12.364;2023-05-20T00:40:33;8.00;;;6.60;;
15258;SDS011;34462;51.368;12.364;2023-05-20T00:43:01;7.67;;;6.87;;
15258;SDS011;34462;51.368;12.364;2023-05-20T00:45:29;7.57;;;6.93;;
15258;SDS011;34462;51.368;12.364;2023-05-20T00:47:59;7.53;;;6.73;;
15258;SDS011;34462;51.368;12.364;2023-05-20T00:50:29;6.83;;;6.23;;
15258;SDS011;34462;51.368;12.364;2023-05-20T00:52:58;8.80;;;7.50;;
15258;SDS011;34462;51.368;12.364;2023-05-20T00:55:26;13.20;;;6.93;;
15258;SDS011;34462;51.368;12.364;2023-05-20T00:57:56;7.17;;;6.47;;
15258;SDS011;34462;51.368;12.364;2023-05-20T01:00:25;7.93;;;7.10;;
15258;SDS011;34462;51.368;12.364;2023-05-20T01:02:53;7.97;;;7.00;;
15258;SDS011;34462;51.368;12.364;2023-05-20T01:05:22;8.63;;;6.63;;
15258;SDS011;34462;51.368;12.364;2023-05-20T01:07:51;8.30;;;7.27;;
15258;SDS011;34462;51.368;12.364;2023-05-20T01:10:19;8.20;;;7.40;;
15258;SDS011;34462;51.368;12.364;2023-05-20T01:12:52;8.27;;;7.47;;
15258;SDS011;34462;51.368;12.364;2023-05-20T01:15:27;9.20;;;7.33;;
15258;SDS011;34462;51.368;12.364;2023-05-20T01:17:59;8.20;;;7.37;;
15258;SDS011;34462;51.368;12.364;2023-05-20T01:20:31;8.00;;;7.20;;
15258;SDS011;34462;51.368;12.364;2023-05-20T01:23:02;9.13;;;7.30;;
15258;SDS011;34462;51.368;12.364;2023-05-20T01:25:30;8.30;;;7.40;;
15258;SDS011;34462;51.368;12.364;2023-05-20T01:27:59;7.70;;;6.83;;
15258;SDS011;34462;51.368;12.364;2023-05-20T01:30:28;8.00;;;7.20;;
15258;SDS011;34462;51.368;12.364;2023-05-20T01:33:04;8.20;;;7.43;;
15258;SDS011;34462;51.368;12.364;2023-05-20T01:35:37;7.50;;;6.80;;
15258;SDS011;34462;51.368;12.364;2023-05-20T01:38:09;8.67;;;7.50;;
15258;SDS011;34462;51.368;12.364;2023-05-20T01:40:38;8.10;;;7.30;;
15258;SDS011;34462;51.368;12.364;2023-05-20T01:43:09;8.73;;;7.93;;
15258;SDS011;34462;51.368;12.364;2023-05-20T01:45:41;8.80;;;7.67;;
15258;SDS011;34462;51.368;12.364;2023-05-20T01:48:10;10.43;;;7.73;;
15258;SDS011;34462;51.368;12.364;2023-05-20T01:50:39;9.17;;;7.40;;
15258;SDS011;34462;51.368;12.364;2023-05-20T01:53:08;8.13;;;7.33;;
15258;SDS011;34462;51.368;12.364;2023-05-20T01:55:38;7.67;;;6.97;;
15258;SDS011;34462;51.368;12.364;2023-05-20T01:58:06;8.47;;;7.63;;
15258;SDS011;34462;51.368;12.364;2023-05-20T02:00:34;9.73;;;8.03;;
15258;SDS011;34462;51.368;12.364;2023-05-20T02:03:03;8.50;;;7.60;;
15258;SDS011;34462;51.368;12.364;2023-05-20T02:05:31;9.10;;;8.20;;
15258;SDS011;34462;51.368;12.364;2023-05-20T02:07:59;8.50;;;7.60;;
15258;SDS011;34462;51.368;12.364;2023-05-20T02:10:29;8.63;;;7.80;;
15258;SDS011;34462;51.368;12.364;2023-05-20T02:12:57;8.80;;;8.00;;
15258;SDS011;34462;51.368;12.364;2023-05-20T02:15:25;9.10;;;8.20;;
15258;SDS011;34462;51.368;12.364;2023-05-20T02:17:53;9.23;;;8.23;;
15258;SDS011;34462;51.368;12.364;2023-05-20T02:20:23;9.93;;;8.93;;
15258;SDS011;34462;51.368;12.364;2023-05-20T02:22:51;9.13;;;8.23;;
15258;SDS011;34462;51.368;12.364;2023-05-20T02:25:19;9.73;;;8.73;;
15258;SDS011;34462;51.368;12.364;2023-05-20T02:27:49;10.00;;;9.10;;
15258;SDS011;34462;51.368;12.364;2023-05-20T02:30:17;9.47;;;8.57;;
15258;SDS011;34462;51.368;12.364;2023-05-20T02:32:45;11.50;;;9.63;;
15258;SDS011;34462;51.368;12.364;2023-05-20T02:35:15;9.90;;;8.90;;
15258;SDS011;34462;51.368;12.364;2023-05-20T02:37:44;10.00;;;9.00;;
15258;SDS011;34462;51.368;12.364;2023-05-20T02:40:13;10.77;;;9.67;;
15258;SDS011;34462;51.368;12.364;2023-05-20T02:42:41;10.43;;;9.37;;
15258;SDS011;34462;51.368;12.364;2023-05-20T02:45:11;12.90;;;10.10;;
15258;SDS011;34462;51.368;12.364;2023-05-20T02:47:39;12.10;;;10.83;;
15258;SDS011;34462;51.368;12.364;2023-05-20T02:50:07;12.77;;;10.90;;
15258;SDS011;34462;51.368;12.364;2023-05-20T02:52:36;12.97;;;11.67;;
15258;SDS011;34462;51.368;12.364;2023-05-20T02:55:05;13.33;;;11.93;;
15258;SDS011;34462;51.368;12.364;2023-05-20T02:57:34;13.20;;;11.27;;
15258;SDS011;34462;51.368;12.364;2023-05-20T03:00:04;14.70;;;12.07;;
15258;SDS011;34462;51.368;12.364;2023-05-20T03:02:37;14.63;;;12.33;;
15258;SDS011;34462;51.368;12.364;2023-05-20T03:05:06;14.67;;;12.07;;
15258;SDS011;34462;51.368;12.364;2023-05-20T03:07:35;13.17;;;11.80;;
15258;SDS011;34462;51.368;12.364;2023-05-20T03:10:04;14.03;;;12.33;;
15258;SDS011;34462;51.368;12.364;2023-05-20T03:12:34;13.83;;;12.33;;
15258;SDS011;34462;51.368;12.364;2023-05-20T03:15:02;13.73;;;12.23;;
15258;SDS011;34462;51.368;12.364;2023-05-20T03:17:32;14.17;;;11.90;;
15258;SDS011;34462;51.368;12.364;2023-05-20T03:20:01;13.87;;;12.37;;
15258;SDS011;34462;51.368;12.364;2023-05-20T03:22:33;13.53;;;12.17;;
15258;SDS011;34462;51.368;12.364;2023-05-20T03:25:01;14.33;;;12.30;;
15258;SDS011;34462;51.368;12.364;2023-05-20T03:27:31;12.73;;;11.43;;
15258;SDS011;34462;51.368;12.364;2023-05-20T03:29:59;13.33;;;11.83;;
15258;SDS011;34462;51.368;12.364;2023-05-20T03:32:27;13.37;;;11.97;;
15258;SDS011;34462;51.368;12.364;2023-05-20T03:34:56;12.87;;;11.47;;
15258;SDS011;34462;51.368;12.364;2023-05-20T03:37:26;12.93;;;11.47;;
15258;SDS011;34462;51.368;12.364;2023-05-20T03:39:54;12.73;;;11.43;;
15258;SDS011;34462;51.368;12.364;2023-05-20T03:42:22;13.37;;;11.57;;
15258;SDS011;34462;51.368;12.364;2023-05-20T03:44:51;12.03;;;10.83;;
15258;SDS011;34462;51.368;12.364;2023-05-20T03:47:19;12.93;;;10.80;;
15258;SDS011;34462;51.368;12.364;2023-05-20T03:49:47;14.57;;;10.67;;
15258;SDS011;34462;51.368;12.364;2023-05-20T03:52:15;12.67;;;11.37;;
15258;SDS011;34462;51.368;12.364;2023-05-20T03:54:44;11.63;;;10.43;;
15258;SDS011;34462;51.368;12.364;2023-05-20T03:57:13;13.27;;;10.80;;
15258;SDS011;34462;51.368;12.364;2023-05-20T03:59:41;12.60;;;11.23;;
15258;SDS011;34462;51.368;12.364;2023-05-20T04:02:10;13.03;;;11.33;;
15258;SDS011;34462;51.368;12.364;2023-05-20T04:04:38;13.60;;;11.83;;
15258;SDS011;34462;51.368;12.364;2023-05-20T04:07:08;12.17;;;10.97;;
15258;SDS011;34462;51.368;12.364;2023-05-20T04:09:36;13.47;;;11.27;;
15258;SDS011;34462;51.368;12.364;2023-05-20T04:12:07;13.13;;;11.53;;
15258;SDS011;34462;51.368;12.364;2023-05-20T04:14:35;13.30;;;11.87;;
15258;SDS011;34462;51.368;12.364;2023-05-20T04:17:04;13.53;;;11.27;;
15258;SDS011;34462;51.368;12.364;2023-05-20T04:19:32;11.57;;;10.27;;
15258;SDS011;34462;51.368;12.364;2023-05-20T04:22:02;13.53;;;11.50;;
15258;SDS011;34462;51.368;12.364;2023-05-20T04:24:30;13.33;;;11.93;;
15258;SDS011;34462;51.368;12.364;2023-05-20T04:26:59;12.67;;;11.37;;
15258;SDS011;34462;51.368;12.364;2023-05-20T04:29:28;13.20;;;11.80;;
15258;SDS011;34462;51.368;12.364;2023-05-20T04:31:59;13.83;;;12.47;;
15258;SDS011;34462;51.368;12.364;2023-05-20T04:34:28;13.50;;;12.10;;
15258;SDS011;34462;51.368;12.364;2023-05-20T04:37:00;13.13;;;11.47;;
15258;SDS011;34462;51.368;12.364;2023-05-20T04:39:28;14.57;;;11.97;;
15258;SDS011;34462;51.368;12.364;2023-05-20T04:41:56;14.10;;;12.43;;
15258;SDS011;34462;51.368;12.364;2023-05-20T04:44:24;14.00;;;11.87;;
15258;SDS011;34462;51.368;12.364;2023-05-20T04:46:54;14.20;;;12.70;;
15258;SDS011;34462;51.368;12.364;2023-05-20T04:49:23;16.03;;;13.07;;
15258;SDS011;34462;51.368;12.364;2023-05-20T04:51:52;14.10;;;12.60;;
15258;SDS011;34462;51.368;12.364;2023-05-20T04:54:20;13.40;;;12.00;;
15258;SDS011;34462;51.368;12.364;2023-05-20T04:56:50;14.77;;;11.40;;
15258;SDS011;34462;51.368;12.364;2023-05-20T04:59:18;13.53;;;11.97;;
15258;SDS011;34462;51.368;12.364;2023-05-20T05:01:46;12.60;;;11.13;;
15258;SDS011;34462;51.368;12.364;2023-05-20T05:04:16;12.50;;;11.20;;
15258;SDS011;34462;51.368;12.364;2023-05-20T05:06:46;12.67;;;11.37;;
15258;SDS011;34462;51.368;12.364;2023-05-20T05:09:14;12.67;;;11.37;;
15258;SDS011;34462;51.368;12.364;2023-05-20T05:11:42;14.40;;;11.67;;
15258;SDS011;34462;51.368;12.364;2023-05-20T05:14:11;12.73;;;11.43;;
15258;SDS011;34462;51.368;12.364;2023-05-20T05:16:39;12.83;;;11.53;;
15258;SDS011;34462;51.368;12.364;2023-05-20T05:19:07;13.10;;;11.70;;
15258;SDS011;34462;51.368;12.364;2023-05-20T05:21:36;12.10;;;10.97;;
15258;SDS011;34462;51.368;12.364;2023-05-20T05:24:05;12.60;;;11.30;;
15258;SDS011;34462;51.368;12.364;2023-05-20T05:26:33;13.17;;;11.33;;
15258;SDS011;34462;51.368;12.364;2023-05-20T05:29:01;12.87;;;11.57;;
15258;SDS011;34462;51.368;12.364;2023-05-20T05:31:30;13.17;;;11.70;;
15258;SDS011;34462;51.368;12.364;2023-05-20T05:33:58;13.73;;;12.20;;
15258;SDS011;34462;51.368;12.364;2023-05-20T05:36:26;13.73;;;12.43;;
15258;SDS011;34462;51.368;12.364;2023-05-20T05:38:56;15.77;;;12.90;;
15258;SDS011;34462;51.368;12.364;2023-05-20T05:41:24;13.93;;;12.53;;
15258;SDS011;34462;51.368;12.364;2023-05-20T05:43:52;13.17;;;11.73;;
15258;SDS011;34462;51.368;12.364;2023-05-20T05:46:21;14.00;;;12.60;;
15258;SDS011;34462;51.368;12.364;2023-05-20T05:48:49;14.67;;;12.47;;
15258;SDS011;34462;51.368;12.364;2023-05-20T05:51:17;13.63;;;12.23;;
15258;SDS011;34462;51.368;12.364;2023-05-20T05:53:45;13.80;;;12.33;;
15258;SDS011;34462;51.368;12.364;2023-05-20T05:56:15;15.77;;;13.07;;
15258;SDS011;34462;51.368;12.364;2023-05-20T05:58:43;13.60;;;12.20;;
15258;SDS011;34462;51.368;12.364;2023-05-20T06:01:13;14.10;;;11.73;;
15258;SDS011;34462;51.368;12.364;2023-05-20T06:03:41;13.43;;;11.73;;
15258;SDS011;34462;51.368;12.364;2023-05-20T06:06:09;14.65;;;13.13;;
15258;SDS011;34462;51.368;12.364;2023-05-20T06:08:38;15.05;;;12.75;;
15258;SDS011;34462;51.368;12.364;2023-05-20T06:11:06;14.97;;;12.33;;
15258;SDS011;34462;51.368;12.364;2023-05-20T06:13:36;15.03;;;12.53;;
15258;SDS011;34462;51.368;12.364;2023-05-20T06:16:04;13.23;;;11.82;;
15258;SDS011;34462;51.368;12.364;2023-05-20T06:18:33;14.00;;;12.50;;
15258;SDS011;34462;51.368;12.364;2023-05-20T06:21:01;13.13;;;11.50;;
15258;SDS011;34462;51.368;12.364;2023-05-20T06:23:29;13.47;;;11.97;;
15258;SDS011;34462;51.368;12.364;2023-05-20T06:25:58;15.40;;;13.20;;
15258;SDS011;34462;51.368;12.364;2023-05-20T06:28:28;14.93;;;12.57;;
15258;SDS011;34462;51.368;12.364;2023-05-20T06:30:58;14.90;;;11.83;;
15258;SDS011;34462;51.368;12.364;2023-05-20T06:33:26;13.67;;;12.03;;
15258;SDS011;34462;51.368;12.364;2023-05-20T06:35:55;16.17;;;13.32;;
15258;SDS011;34462;51.368;12.364;2023-05-20T06:38:27;14.45;;;12.93;;
15258;SDS011;34462;51.368;12.364;2023-05-20T06:40:55;15.75;;;13.18;;
15258;SDS011;34462;51.368;12.364;2023-05-20T06:43:23;14.77;;;12.98;;
15258;SDS011;34462;51.368;12.364;2023-05-20T06:45:51;14.38;;;12.45;;
15258;SDS011;34462;51.368;12.364;2023-05-20T06:48:21;14.27;;;12.33;;
15258;SDS011;34462;51.368;12.364;2023-05-20T06:50:49;14.23;;;12.73;;
15258;SDS011;34462;51.368;12.364;2023-05-20T06:53:17;15.67;;;13.50;;
15258;SDS011;34462;51.368;12.364;2023-05-20T06:55:46;14.65;;;12.75;;
15258;SDS011;34462;51.368;12.364;2023-05-20T06:58:14;14.13;;;12.60;;
15258;SDS011;34462;51.368;12.364;2023-05-20T07:00:42;16.53;;;13.33;;
15258;SDS011;34462;51.368;12.364;2023-05-20T07:03:10;14.20;;;12.80;;
15258;SDS011;34462;51.368;12.364;2023-05-20T07:05:40;18.00;;;13.13;;
15258;SDS011;34462;51.368;12.364;2023-05-20T07:08:08;15.27;;;13.70;;
15258;SDS011;34462;51.368;12.364;2023-05-20T07:10:36;15.03;;;13.50;;
15258;SDS011;34462;51.368;12.364;2023-05-20T07:13:04;16.23;;;13.63;;
15258;SDS011;34462;51.368;12.364;2023-05-20T07:15:32;18.30;;;15.02;;
15258;SDS011;34462;51.368;12.364;2023-05-20T07:18:01;17.93;;;14.77;;
15258;SDS011;34462;51.368;12.364;2023-05-20T07:20:29;16.65;;;14.93;;
15258;SDS011;34462;51.368;12.364;2023-05-20T07:22:59;18.27;;;14.47;;
15258;SDS011;34462;51.368;12.364;2023-05-20T07:25:29;16.77;;;14.48;;
15258;SDS011;34462;51.368;12.364;2023-05-20T07:27:57;17.30;;;15.30;;
15258;SDS011;34462;51.368;12.364;2023-05-20T07:30:25;17.77;;;15.27;;
15258;SDS011;34462;51.368;12.364;2023-05-20T07:32:54;18.73;;;15.45;;
15258;SDS011;34462;51.368;12.364;2023-05-20T07:35:22;16.97;;;15.17;;
15258;SDS011;34462;51.368;12.364;2023-05-20T07:37:50;18.25;;;15.20;;
15258;SDS011;34462;51.368;12.364;2023-05-20T07:40:20;19.48;;;14.73;;
15258;SDS011;34462;51.368;12.364;2023-05-20T07:42:48;17.93;;;14.80;;
15258;SDS011;34462;51.368;12.364;2023-05-20T07:45:16;19.17;;;16.17;;
15258;SDS011;34462;51.368;12.364;2023-05-20T07:47:44;16.88;;;14.00;;
15258;SDS011;34462;51.368;12.364;2023-05-20T07:50:13;17.75;;;14.50;;
15258;SDS011;34462;51.368;12.364;2023-05-20T07:52:41;16.10;;;13.98;;
15258;SDS011;34462;51.368;12.364;2023-05-20T07:55:22;16.35;;;14.43;;
15258;SDS011;34462;51.368;12.364;2023-05-20T07:57:51;16.25;;;13.80;;
15258;SDS011;34462;51.368;12.364;2023-05-20T08:00:19;16.08;;;14.38;;
15258;SDS011;34462;51.368;12.364;2023-05-20T08:02:47;16.15;;;14.25;;
15258;SDS011;34462;51.368;12.364;2023-05-20T08:05:16;18.30;;;15.57;;
15258;SDS011;34462;51.368;12.364;2023-05-20T08:07:44;16.50;;;14.70;;
15258;SDS011;34462;51.368;12.364;2023-05-20T08:10:12;17.05;;;14.43;;
15258;SDS011;34462;51.368;12.364;2023-05-20T08:12:42;16.73;;;14.32;;
15258;SDS011;34462;51.368;12.364;2023-05-20T08:15:10;16.17;;;14.27;;
15258;SDS011;34462;51.368;12.364;2023-05-20T08:17:38;16.63;;;14.65;;
15258;SDS011;34462;51.368;12.364;2023-05-20T08:20:08;16.17;;;14.48;;
15258;SDS011;34462;51.368;12.364;2023-05-20T08:22:37;16.30;;;14.60;;
15258;SDS011;34462;51.368;12.364;2023-05-20T08:25:07;16.35;;;14.55;;
15258;SDS011;34462;51.368;12.364;2023-05-20T08:27:36;14.95;;;13.45;;
15258;SDS011;34462;51.368;12.364;2023-05-20T08:30:06;15.73;;;13.73;;
15258;SDS011;34462;51.368;12.364;2023-05-20T08:32:36;14.77;;;13.15;;
15258;SDS011;34462;51.368;12.364;2023-05-20T08:35:04;15.90;;;13.73;;
15258;SDS011;34462;51.368;12.364;2023-05-20T08:37:34;15.70;;;13.80;;
15258;SDS011;34462;51.368;12.364;2023-05-20T08:40:02;14.02;;;12.55;;
15258;SDS011;34462;51.368;12.364;2023-05-20T08:42:31;14.82;;;13.32;;
15258;SDS011;34462;51.368;12.364;2023-05-20T08:44:59;15.07;;;13.48;;
15258;SDS011;34462;51.368;12.364;2023-05-20T08:47:32;13.38;;;11.98;;
15258;SDS011;34462;51.368;12.364;2023-05-20T08:50:00;17.55;;;13.90;;
15258;SDS011;34462;51.368;12.364;2023-05-20T08:52:29;16.92;;;13.80;;
15258;SDS011;34462;51.368;12.364;2023-05-20T08:55:01;15.38;;;13.82;;
15258;SDS011;34462;51.368;12.364;2023-05-20T08:57:31;15.13;;;13.52;;
15258;SDS011;34462;51.368;12.364;2023-05-20T08:59:59;15.13;;;13.52;;
15258;SDS011;34462;51.368;12.364;2023-05-20T09:02:36;16.52;;;13.85;;
15258;SDS011;34462;51.368;12.364;2023-05-20T09:05:05;16.08;;;13.88;;
15258;SDS011;34462;51.368;12.364;2023-05-20T09:07:36;15.93;;;13.38;;
15258;SDS011;34462;51.368;12.364;2023-05-20T09:10:05;15.88;;;14.18;;
15258;SDS011;34462;51.368;12.364;2023-05-20T09:12:34;16.52;;;14.60;;
15258;SDS011;34462;51.368;12.364;2023-05-20T09:15:04;17.10;;;14.50;;
15258;SDS011;34462;51.368;12.364;2023-05-20T09:17:34;16.13;;;14.43;;
15258;SDS011;34462;51.368;12.364;2023-05-20T09:20:06;18.05;;;15.85;;
15258;SDS011;34462;51.368;12.364;2023-05-20T09:22:38;17.83;;;15.70;;
15258;SDS011;34462;51.368;12.364;2023-05-20T09:25:07;18.52;;;16.05;;
15258;SDS011;34462;51.368;12.364;2023-05-20T09:27:38;16.20;;;14.23;;
15258;SDS011;34462;51.368;12.364;2023-05-20T09:30:07;18.08;;;15.55;;
15258;SDS011;34462;51.368;12.364;2023-05-20T09:32:37;18.17;;;16.15;;
15258;SDS011;34462;51.368;12.364;2023-05-20T09:35:08;17.92;;;15.95;;
15258;SDS011;34462;51.368;12.364;2023-05-20T09:37:41;17.25;;;15.43;;
15258;SDS011;34462;51.368;12.364;2023-05-20T09:40:13;18.48;;;15.60;;
15258;SDS011;34462;51.368;12.364;2023-05-20T09:42:43;17.60;;;15.70;;
15258;SDS011;34462;51.368;12.364;2023-05-20T09:45:20;18.60;;;15.80;;
15258;SDS011;34462;51.368;12.364;2023-05-20T09:47:49;16.70;;;14.90;;
15258;SDS011;34462;51.368;12.364;2023-05-20T09:50:20;17.60;;;15.70;;
15258;SDS011;34462;51.368;12.364;2023-05-20T09:52:51;17.98;;;15.48;;
15258;SDS011;34462;51.368;12.364;2023-05-20T09:55:21;17.00;;;15.20;;
15258;SDS011;34462;51.368;12.364;2023-05-20T09:57:51;16.85;;;14.90;;
15258;SDS011;34462;51.368;12.364;2023-05-20T10:00:21;15.55;;;13.95;;
15258;SDS011;34462;51.368;12.364;2023-05-20T10:02:49;19.88;;;17.98;;
15258;SDS011;34462;51.368;12.364;2023-05-20T10:05:21;15.75;;;13.98;;
15258;SDS011;34462;51.368;12.364;2023-05-20T10:11:20;17.20;;;14.50;;
15258;SDS011;34462;51.368;12.364;2023-05-20T10:14:06;16.60;;;14.85;;
15258;SDS011;34462;51.368;12.364;2023-05-20T10:16:53;17.40;;;15.55;;
15258;SDS011;34462;51.368;12.364;2023-05-20T10:19:33;15.68;;;14.02;;
15258;SDS011;34462;51.368;12.364;2023-05-20T10:22:03;20.98;;;18.85;;
15258;SDS011;34462;51.368;12.364;2023-05-20T10:24:34;17.75;;;14.82;;
15258;SDS011;34462;51.368;12.364;2023-05-20T10:27:07;17.00;;;15.00;;
15258;SDS011;34462;51.368;12.364;2023-05-20T10:29:41;16.50;;;14.57;;
15258;SDS011;34462;51.368;12.364;2023-05-20T10:32:23;15.32;;;13.65;;
15258;SDS011;34462;51.368;12.364;2023-05-20T10:34:52;17.55;;;15.48;;
15258;SDS011;34462;51.368;12.364;2023-05-20T10:37:28;16.60;;;14.90;;
15258;SDS011;34462;51.368;12.364;2023-05-20T10:40:02;16.83;;;14.85;;
15258;SDS011;34462;51.368;12.364;2023-05-20T10:42:36;18.27;;;15.32;;
15258;SDS011;34462;51.368;12.364;2023-05-20T10:45:06;14.82;;;13.32;;
15258;SDS011;34462;51.368;12.364;2023-05-20T10:47:35;16.15;;;14.30;;
15258;SDS011;34462;51.368;12.364;2023-05-20T10:50:12;15.48;;;13.82;;
15258;SDS011;34462;51.368;12.364;2023-05-20T10:52:55;17.02;;;14.23;;
15258;SDS011;34462;51.368;12.364;2023-05-20T10:55:35;15.57;;;13.88;;
15258;SDS011;34462;51.368;12.364;2023-05-20T10:58:05;16.05;;;14.27;;
15258;SDS011;34462;51.368;12.364;2023-05-20T11:00:34;16.65;;;13.65;;
15258;SDS011;34462;51.368;12.364;2023-05-20T11:03:03;15.65;;;14.07;;
15258;SDS011;34462;51.368;12.364;2023-05-20T11:05:33;16.30;;;14.52;;
15258;SDS011;34462;51.368;12.364;2023-05-20T11:08:04;17.55;;;14.43;;
15258;SDS011;34462;51.368;12.364;2023-05-20T11:10:54;16.95;;;14.43;;
15258;SDS011;34462;51.368;12.364;2023-05-20T11:13:23;17.52;;;14.20;;
15258;SDS011;34462;51.368;12.364;2023-05-20T11:15:52;14.75;;;13.20;;
15258;SDS011;34462;51.368;12.364;2023-05-20T11:18:21;17.00;;;14.50;;
15258;SDS011;34462;51.368;12.364;2023-05-20T11:20:49;16.65;;;14.70;;
15258;SDS011;34462;51.368;12.364;2023-05-20T11:23:20;17.73;;;14.93;;
15258;SDS011;34462;51.368;12.364;2023-05-20T11:25:49;14.93;;;13.50;;
15258;SDS011;34462;51.368;12.364;2023-05-20T11:28:19;15.43;;;13.77;;
15258;SDS011;34462;51.368;12.364;2023-05-20T11:30:48;15.15;;;13.55;;
15258;SDS011;34462;51.368;12.364;2023-05-20T11:33:18;14.88;;;13.27;;
15258;SDS011;34462;51.368;12.364;2023-05-20T11:35:47;14.50;;;13.00;;
15258;SDS011;34462;51.368;12.364;2023-05-20T11:38:18;13.77;;;12.40;;
15258;SDS011;34462;51.368;12.364;2023-05-20T11:40:50;15.55;;;13.75;;
15258;SDS011;34462;51.368;12.364;2023-05-20T11:43:21;15.25;;;13.60;;
15258;SDS011;34462;51.368;12.364;2023-05-20T11:45:52;15.10;;;13.45;;
15258;SDS011;34462;51.368;12.364;2023-05-20T11:48:24;13.68;;;12.25;;
15258;SDS011;34462;51.368;12.364;2023-05-20T11:50:53;15.10;;;13.30;;
15258;SDS011;34462;51.368;12.364;2023-05-20T11:53:27;15.32;;;12.93;;
15258;SDS011;34462;51.368;12.364;2023-05-20T11:55:56;15.48;;;13.20;;
15258;SDS011;34462;51.368;12.364;2023-05-20T11:58:25;15.57;;;13.27;;
15258;SDS011;34462;51.368;12.364;2023-05-20T12:00:57;15.27;;;13.27;;
15258;SDS011;34462;51.368;12.364;2023-05-20T12:03:45;15.15;;;13.55;;
15258;SDS011;34462;51.368;12.364;2023-05-20T12:06:14;15.30;;;13.70;;
15258;SDS011;34462;51.368;12.364;2023-05-20T12:08:45;14.25;;;12.75;;
15258;SDS011;34462;51.368;12.364;2023-05-20T12:11:13;15.88;;;13.32;;
15258;SDS011;34462;51.368;12.364;2023-05-20T12:13:42;15.75;;;13.82;;
15258;SDS011;34462;51.368;12.364;2023-05-20T12:16:10;14.80;;;13.10;;
15258;SDS011;34462;51.368;12.364;2023-05-20T12:18:38;15.55;;;13.93;;
15258;SDS011;34462;51.368;12.364;2023-05-20T12:21:06;15.75;;;12.95;;
15258;SDS011;34462;51.368;12.364;2023-05-20T12:23:35;15.65;;;14.10;;
15258;SDS011;34462;51.368;12.364;2023-05-20T12:26:04;15.23;;;12.60;;
15258;SDS011;34462;51.368;12.364;2023-05-20T12:28:33;14.18;;;12.57;;
15258;SDS011;34462;51.368;12.364;2023-05-20T12:31:01;14.73;;;13.18;;
15258;SDS011;34462;51.368;12.364;2023-05-20T12:33:29;16.80;;;14.30;;
15258;SDS011;34462;51.368;12.364;2023-05-20T12:35:57;14.77;;;13.18;;
15258;SDS011;34462;51.368;12.364;2023-05-20T12:38:26;14.48;;;12.98;;
15258;SDS011;34462;51.368;12.364;2023-05-20T12:40:54;16.00;;;14.38;;
15258;SDS011;34462;51.368;12.364;2023-05-20T12:43:24;16.08;;;14.30;;
15258;SDS011;34462;51.368;12.364;2023-05-20T12:45:52;15.27;;;13.75;;
15258;SDS011;34462;51.368;12.364;2023-05-20T12:48:21;16.08;;;14.38;;
15258;SDS011;34462;51.368;12.364;2023-05-20T12:50:49;15.70;;;13.75;;
15258;SDS011;34462;51.368;12.364;2023-05-20T12:53:17;18.00;;;16.08;;
15258;SDS011;34462;51.368;12.364;2023-05-20T12:55:45;17.73;;;14.90;;
15258;SDS011;34462;51.368;12.364;2023-05-20T12:58:13;15.57;;;13.38;;
15258;SDS011;34462;51.368;12.364;2023-05-20T13:00:42;16.17;;;14.50;;
15258;SDS011;34462;51.368;12.364;2023-05-20T13:03:11;15.88;;;14.20;;
15258;SDS011;34462;51.368;12.364;2023-05-20T13:05:39;18.45;;;14.77;;
15258;SDS011;34462;51.368;12.364;2023-05-20T13:08:07;16.70;;;14.63;;
15258;SDS011;34462;51.368;12.364;2023-05-20T13:10:37;15.35;;;13.75;;
15258;SDS011;34462;51.368;12.364;2023-05-20T13:13:05;16.45;;;14.75;;
15258;SDS011;34462;51.368;12.364;2023-05-20T13:15:33;16.50;;;14.60;;
15258;SDS011;34462;51.368;12.364;2023-05-20T13:18:03;16.55;;;14.63;;
15258;SDS011;34462;51.368;12.364;2023-05-20T13:20:32;19.75;;;15.50;;
15258;SDS011;34462;51.368;12.364;2023-05-20T13:23:00;17.17;;;14.88;;
15258;SDS011;34462;51.368;12.364;2023-05-20T13:25:29;16.20;;;14.52;;
15258;SDS011;34462;51.368;12.364;2023-05-20T13:27:57;16.70;;;15.02;;
15258;SDS011;34462;51.368;12.364;2023-05-20T13:30:25;17.80;;;15.43;;
15258;SDS011;34462;51.368;12.364;2023-05-20T13:32:54;17.80;;;15.35;;
15258;SDS011;34462;51.368;12.364;2023-05-20T13:35:24;16.98;;;15.13;;
15258;SDS011;34462;51.368;12.364;2023-05-20T13:37:52;17.30;;;15.52;;
15258;SDS011;34462;51.368;12.364;2023-05-20T13:40:20;18.23;;;15.55;;
15258;SDS011;34462;51.368;12.364;2023-05-20T13:42:48;17.10;;;15.10;;
15258;SDS011;34462;51.368;12.364;2023-05-20T13:45:16;17.10;;;15.30;;
15258;SDS011;34462;51.368;12.364;2023-05-20T13:47:44;17.83;;;15.93;;
15258;SDS011;34462;51.368;12.364;2023-05-20T13:50:13;17.50;;;14.60;;
15258;SDS011;34462;51.368;12.364;2023-05-20T13:52:43;16.77;;;15.05;;
15258;SDS011;34462;51.368;12.364;2023-05-20T13:55:11;15.80;;;13.65;;
15258;SDS011;34462;51.368;12.364;2023-05-20T13:57:39;16.63;;;14.85;;
15258;SDS011;34462;51.368;12.364;2023-05-20T14:00:07;15.80;;;14.10;;
15258;SDS011;34462;51.368;12.364;2023-05-20T14:02:37;16.13;;;14.45;;
15258;SDS011;34462;51.368;12.364;2023-05-20T14:05:05;15.30;;;13.73;;
15258;SDS011;34462;51.368;12.364;2023-05-20T14:07:34;16.10;;;14.52;;
15258;SDS011;34462;51.368;12.364;2023-05-20T14:10:05;15.75;;;14.10;;
15258;SDS011;34462;51.368;12.364;2023-05-20T14:12:36;16.40;;;14.75;;
15258;SDS011;34462;51.368;12.364;2023-05-20T14:15:05;15.25;;;13.65;;
15258;SDS011;34462;51.368;12.364;2023-05-20T14:17:34;15.73;;;14.13;;
15258;SDS011;34462;51.368;12.364;2023-05-20T14:20:02;15.52;;;13.93;;
15258;SDS011;34462;51.368;12.364;2023-05-20T14:22:32;15.05;;;13.55;;
15258;SDS011;34462;51.368;12.364;2023-05-20T14:25:01;15.85;;;13.43;;
15258;SDS011;34462;51.368;12.364;2023-05-20T14:27:30;15.15;;;13.55;;
15258;SDS011;34462;51.368;12.364;2023-05-20T14:29:58;14.82;;;13.13;;